Time;durP1;ratioP1;P1;durP2;ratioP2;P2;SDS_P1;SDS_P2;PMS_P1;PMS_P2;Temp;Humidity;BMP_temperature;BMP_pressure;BME280_temperature;BME280_humidity;BME280_pressure;Samples;Min_cycle;Max_cycle;Signal;HPM_P1;HPM_P2
2022/03/14 00:00:07;;;;;;;9.40;7.17;;;4.20;92.20;;;4.76;43.08;-19889.06;5092955;28;20259;-58
2022/03/14 00:02:35;;;;;;;9.07;7.00;;;4.10;92.20;;;4.91;42.89;-19894.00;5093378;28;20708;-60
2022/03/14 00:05:05;;;;;;;9.57;7.27;;;4.10;92.20;;;4.82;42.59;-19891.09;5092994;28;20847;-57
2022/03/14 00:07:36;;;;;;;10.27;6.67;;;4.10;92.10;;;4.89;42.32;-19893.31;5094173;28;20237;-59
2022/03/14 00:10:05;;;;;;;8.77;7.17;;;4.10;92.10;;;4.79;42.36;-19889.91;5092541;28;20596;-59
2022/03/14 00:12:35;;;;;;;8.97;6.53;;;4.10;92.10;;;4.75;42.34;-19888.72;5100649;28;20679;-59
2022/03/14 00:15:08;;;;;;;8.93;6.90;;;4.10;92.00;;;4.78;42.66;-19889.56;5113359;28;20250;-59
2022/03/14 00:17:36;;;;;;;9.47;7.23;;;4.00;92.10;;;5.00;41.53;-19897.09;5113339;28;20238;-58
2022/03/14 00:20:07;;;;;;;8.00;6.97;;;4.10;92.20;;;4.93;41.79;-19894.88;5112904;28;20313;-57
2022/03/14 00:22:37;;;;;;;9.47;6.87;;;4.10;91.90;;;4.84;42.01;-19891.78;5113271;28;20301;-58
2022/03/14 00:25:06;;;;;;;8.37;6.73;;;4.10;91.90;;;4.81;41.89;-19890.78;5113234;28;20249;-59
2022/03/14 00:27:36;;;;;;;8.20;6.67;;;4.10;91.80;;;4.99;41.54;-19896.75;5114187;28;20294;-59
2022/03/14 00:30:07;;;;;;;8.83;6.83;;;4.10;91.70;;;4.77;41.73;-19889.41;5092681;28;20232;-57
2022/03/14 00:32:35;;;;;;;8.77;6.73;;;4.10;91.60;;;4.68;41.85;-19886.31;5093057;28;20710;-60
2022/03/14 00:35:06;;;;;;;7.53;6.73;;;4.00;91.60;;;4.78;42.13;-19889.75;5092576;28;20240;-59
2022/03/14 00:37:34;;;;;;;10.17;7.13;;;4.00;91.70;;;4.92;41.45;-19894.53;5092784;28;20249;-59
2022/03/14 00:40:07;;;;;;;8.63;6.57;;;4.00;92.10;;;4.71;41.94;-19887.34;5092147;28;20300;-58
2022/03/14 00:42:38;;;;;;;9.00;6.90;;;4.00;91.70;;;4.55;42.38;-19881.88;5092908;28;20712;-59
2022/03/14 00:45:08;;;;;;;8.80;6.73;;;3.90;91.80;;;4.59;42.28;-19883.25;5091652;28;20297;-57
2022/03/14 00:47:36;;;;;;;8.67;6.73;;;3.90;91.90;;;4.69;41.99;-19886.50;5092575;28;20303;-59
2022/03/14 00:50:05;;;;;;;9.10;6.57;;;3.90;91.90;;;4.79;41.92;-19889.91;5092278;28;20248;-57
2022/03/14 00:52:34;;;;;;;9.40;7.50;;;4.00;91.90;;;4.66;42.18;-19885.63;5092380;28;20382;-56
2022/03/14 00:55:02;;;;;;;8.60;7.00;;;3.90;92.00;;;4.78;41.97;-19889.75;5092220;28;20310;-57
2022/03/14 00:57:29;;;;;;;9.87;7.03;;;3.90;92.00;;;4.80;41.51;-19890.41;5092820;28;20204;-59
2022/03/14 00:59:59;;;;;;;10.23;6.63;;;3.90;91.90;;;4.52;42.29;-19880.69;5092017;28;20222;-59
2022/03/14 01:02:27;;;;;;;9.20;7.23;;;3.90;92.00;;;4.62;42.36;-19884.09;5092089;28;20231;-58
2022/03/14 01:04:55;;;;;;;8.87;7.27;;;3.80;92.00;;;4.56;42.44;-19882.06;5091950;28;20295;-57
2022/03/14 01:07:23;;;;;;;8.80;7.27;;;3.80;92.00;;;4.49;42.44;-19879.81;5092093;28;20302;-60
2022/03/14 01:09:52;;;;;;;9.03;6.43;;;3.80;92.00;;;4.37;42.51;-19875.56;5091678;28;20317;-57
2022/03/14 01:12:19;;;;;;;8.73;6.83;;;3.70;92.00;;;4.25;42.87;-19871.63;5092475;28;20236;-58
2022/03/14 01:14:47;;;;;;;8.43;6.70;;;3.60;92.00;;;4.09;43.03;-19866.16;5091467;28;20705;-58
2022/03/14 01:17:17;;;;;;;8.70;7.30;;;3.50;92.20;;;4.21;42.24;-19870.09;5092099;28;20233;-57
2022/03/14 01:19:45;;;;;;;7.73;6.80;;;3.50;91.90;;;4.11;42.83;-19866.84;5091532;28;20233;-58
2022/03/14 01:22:13;;;;;;;9.17;6.53;;;3.50;92.20;;;4.23;42.00;-19870.78;5091787;28;20257;-59
2022/03/14 01:24:43;;;;;;;8.40;6.83;;;3.50;91.90;;;4.29;42.08;-19873.00;5091224;28;20255;-59
2022/03/14 01:27:11;;;;;;;9.00;6.90;;;3.50;91.80;;;4.20;42.10;-19869.91;5092379;28;20210;-57
2022/03/14 01:29:40;;;;;;;8.27;6.20;;;3.50;91.90;;;4.34;41.46;-19874.69;5091228;28;20689;-55
2022/03/14 01:32:10;;;;;;;8.27;6.63;;;3.50;91.60;;;4.34;41.31;-19874.53;5091698;28;20650;-57
2022/03/14 01:34:39;;;;;;;8.53;6.47;;;3.60;91.50;;;4.35;41.56;-19874.88;5091518;28;20651;-59
2022/03/14 01:37:08;;;;;;;8.80;6.40;;;3.50;91.50;;;4.31;41.00;-19873.66;5091594;28;20226;-59
2022/03/14 01:39:36;;;;;;;7.93;6.67;;;3.60;91.40;;;4.34;41.24;-19874.69;5091394;28;20752;-58
2022/03/14 01:42:05;;;;;;;8.93;7.23;;;3.60;91.50;;;4.30;41.38;-19873.16;5091494;28;20329;-58
2022/03/14 01:44:33;;;;;;;7.90;6.03;;;3.60;91.30;;;4.14;42.11;-19867.88;5091249;28;20226;-57
2022/03/14 01:47:01;;;;;;;7.10;6.33;;;3.50;91.60;;;4.20;41.88;-19869.91;5091328;28;20814;-57
2022/03/14 01:49:29;;;;;;;7.60;6.17;;;3.50;91.70;;;4.24;41.76;-19871.28;5091661;28;20231;-58
2022/03/14 01:51:59;;;;;;;8.80;6.33;;;3.50;91.60;;;4.22;41.52;-19870.59;5091247;28;20224;-59
2022/03/14 01:54:27;;;;;;;7.83;6.37;;;3.50;91.50;;;4.28;41.55;-19872.47;5091892;28;20186;-59
2022/03/14 01:56:56;;;;;;;9.87;6.50;;;3.50;91.60;;;4.09;42.12;-19866.16;5090890;28;20229;-59
2022/03/14 01:59:24;;;;;;;8.60;6.47;;;3.40;91.70;;;4.01;42.45;-19863.25;5090918;28;20224;-57
2022/03/14 02:01:52;;;;;;;8.13;6.07;;;3.40;91.90;;;4.19;41.80;-19869.56;5091002;28;20236;-60
2022/03/14 02:04:21;;;;;;;9.03;6.43;;;3.40;91.90;;;4.09;42.25;-19865.97;5091099;28;20278;-57
2022/03/14 02:06:50;;;;;;;8.07;6.10;;;3.40;91.90;;;4.06;42.17;-19865.13;5090781;28;20207;-58
2022/03/14 02:09:20;;;;;;;8.87;6.67;;;3.30;91.90;;;3.97;42.37;-19862.06;5091139;28;20314;-57
2022/03/14 02:12:05;;;;;;;9.73;7.27;;;3.30;91.90;;;4.00;42.36;-19862.91;5090434;28;20394;-58
2022/03/14 02:14:36;;;;;;;9.20;6.60;;;3.30;92.00;;;4.04;42.08;-19864.28;5092612;28;20299;-57
2022/03/14 02:17:04;;;;;;;8.10;6.63;;;3.30;91.90;;;4.06;42.28;-19864.97;5091158;28;20227;-56
2022/03/14 02:19:32;;;;;;;9.47;6.50;;;3.30;91.90;;;4.03;42.07;-19863.94;5091091;28;20230;-58
2022/03/14 02:22:02;;;;;;;7.80;6.17;;;3.30;91.90;;;3.91;43.01;-19860.00;5090640;28;20226;-57
2022/03/14 02:24:31;;;;;;;7.70;6.50;;;3.20;92.30;;;3.79;43.30;-19855.72;5091528;28;20213;-58
2022/03/14 02:26:59;;;;;;;8.33;6.43;;;3.20;92.50;;;3.81;43.45;-19856.41;5090661;28;20308;-59
2022/03/14 02:29:27;;;;;;;8.33;6.83;;;3.10;92.40;;;3.66;43.17;-19851.44;5091075;28;20702;-58
2022/03/14 02:31:55;;;;;;;7.20;6.33;;;3.00;92.30;;;3.57;43.39;-19848.38;5090222;28;20229;-60
2022/03/14 02:34:23;;;;;;;8.67;6.50;;;3.00;92.40;;;3.71;43.65;-19853.16;5090580;28;20315;-58
2022/03/14 02:36:51;;;;;;;9.83;6.57;;;2.90;92.70;;;3.64;44.19;-19850.78;5090883;28;20216;-59
2022/03/14 02:39:21;;;;;;;8.77;7.00;;;2.90;93.00;;;3.57;44.00;-19848.53;5091499;28;20283;-58
2022/03/14 02:41:49;;;;;;;11.53;6.83;;;2.90;92.90;;;3.52;44.54;-19846.84;5090231;28;20268;-58
2022/03/14 02:44:17;;;;;;;8.83;6.20;;;2.80;93.20;;;3.56;44.61;-19848.22;5090417;28;20309;-58
2022/03/14 02:46:45;;;;;;;11.13;6.67;;;2.80;93.30;;;3.58;44.13;-19848.72;5090301;28;20237;-57
2022/03/14 02:49:13;;;;;;;9.33;6.27;;;2.80;93.10;;;3.52;44.71;-19846.66;5090479;28;20306;-57
2022/03/14 02:51:42;;;;;;;7.67;6.20;;;2.80;93.40;;;3.48;44.86;-19845.31;5090455;28;20205;-58
2022/03/14 02:54:11;;;;;;;8.77;6.37;;;2.80;93.50;;;3.50;44.59;-19846.16;5090982;28;20316;-58
2022/03/14 02:56:42;;;;;;;9.73;7.10;;;2.80;93.50;;;3.55;44.31;-19847.88;5090330;28;20307;-59
2022/03/14 02:59:11;;;;;;;8.70;6.47;;;2.80;93.30;;;3.47;44.90;-19845.13;5090550;28;20228;-60
2022/03/14 03:01:39;;;;;;;9.83;6.90;;;2.70;93.50;;;3.31;45.58;-19839.66;5090321;28;20223;-57
2022/03/14 03:04:09;;;;;;;9.13;6.70;;;2.70;93.90;;;3.33;45.61;-19840.19;5090503;28;20225;-58
2022/03/14 03:06:38;;;;;;;8.43;6.27;;;2.70;93.90;;;3.39;45.81;-19842.22;5090784;28;20300;-58
2022/03/14 03:09:06;;;;;;;8.27;6.77;;;2.60;94.00;;;3.36;45.33;-19841.38;5090718;28;20695;-59
2022/03/14 03:11:34;;;;;;;8.17;6.33;;;2.60;93.80;;;3.28;45.35;-19838.47;5090143;28;20268;-58
2022/03/14 03:14:04;;;;;;;9.47;6.50;;;2.60;93.80;;;3.26;46.07;-19837.78;5090288;28;20405;-59
2022/03/14 03:16:34;;;;;;;9.93;6.40;;;2.50;94.10;;;3.19;46.04;-19835.38;5090157;28;20223;-59
2022/03/14 03:19:03;;;;;;;9.30;6.73;;;2.50;94.10;;;3.14;46.63;-19833.69;5090684;28;20245;-57
2022/03/14 03:21:34;;;;;;;8.20;5.97;;;2.50;94.20;;;3.17;45.95;-19834.88;5090516;28;20738;-59
2022/03/14 03:24:03;;;;;;;9.17;6.53;;;2.50;94.10;;;3.13;45.42;-19833.34;5090071;28;20335;-60
2022/03/14 03:26:31;;;;;;;10.07;6.77;;;2.40;93.90;;;3.31;45.71;-19839.50;5090328;28;20343;-58
2022/03/14 03:28:59;;;;;;;8.77;6.50;;;2.50;94.00;;;3.14;45.94;-19833.69;5090242;28;20265;-57
2022/03/14 03:31:28;;;;;;;8.63;6.53;;;2.50;94.30;;;3.09;45.77;-19831.97;5090166;28;20309;-56
2022/03/14 03:33:57;;;;;;;8.67;7.10;;;2.40;94.00;;;3.17;45.83;-19834.88;5090085;28;20697;-58
2022/03/14 03:36:25;;;;;;;8.90;6.93;;;2.40;94.10;;;3.12;46.11;-19833.00;5090629;28;20227;-58
2022/03/14 03:38:52;;;;;;;8.10;6.43;;;2.40;94.10;;;3.09;46.21;-19832.13;5089924;28;20271;-57
2022/03/14 03:41:20;;;;;;;9.17;6.87;;;2.30;94.30;;;3.05;46.07;-19830.78;5069691;28;20251;-58
2022/03/14 03:43:48;;;;;;;10.10;6.47;;;2.30;94.20;;;3.09;45.90;-19832.13;5070298;28;20989;-58
2022/03/14 03:46:16;;;;;;;10.40;6.83;;;2.30;94.20;;;3.07;45.95;-19831.28;5073407;28;20313;-59
2022/03/14 03:48:46;;;;;;;9.40;6.57;;;2.30;94.10;;;2.98;46.45;-19828.19;5073503;28;20211;-57
2022/03/14 03:51:14;;;;;;;11.27;7.00;;;2.30;94.30;;;2.93;46.20;-19826.50;5073574;28;20224;-59
2022/03/14 03:53:42;;;;;;;8.33;6.57;;;2.30;94.20;;;2.91;45.54;-19825.97;5073236;28;20561;-59
2022/03/14 03:56:10;;;;;;;8.30;6.23;;;2.20;94.00;;;2.89;46.25;-19825.13;5072989;28;20789;-60
2022/03/14 03:58:38;;;;;;;7.90;7.03;;;2.20;94.10;;;3.03;46.15;-19830.09;5072882;28;20308;-58
2022/03/14 04:01:06;;;;;;;10.37;6.67;;;2.20;94.30;;;2.97;46.04;-19827.88;5073162;28;20221;-55
2022/03/14 04:03:35;;;;;;;8.00;6.50;;;2.20;94.20;;;3.03;45.47;-19829.91;5073316;28;20624;-58
2022/03/14 04:06:04;;;;;;;10.63;7.60;;;2.20;94.10;;;2.90;45.98;-19825.47;5072909;28;20239;-59
2022/03/14 04:08:32;;;;;;;9.90;6.90;;;2.20;94.00;;;3.14;45.37;-19833.84;5073146;28;20246;-59
2022/03/14 04:11:02;;;;;;;8.87;6.17;;;2.30;94.10;;;3.01;45.49;-19829.22;5072912;28;20232;-58
2022/03/14 04:13:30;;;;;;;8.57;6.80;;;2.30;93.90;;;3.11;45.28;-19832.66;5079443;28;20579;-58
2022/03/14 04:15:58;;;;;;;9.33;6.97;;;2.30;93.90;;;3.13;44.92;-19833.34;5092952;28;20767;-58
2022/03/14 04:18:26;;;;;;;12.23;7.20;;;2.30;93.90;;;3.18;44.78;-19835.03;5094051;28;20229;-60
2022/03/14 04:20:55;;;;;;;8.57;6.50;;;2.30;93.80;;;3.08;45.19;-19831.63;5093082;28;20912;-58
2022/03/14 04:23:27;;;;;;;9.07;7.13;;;2.30;93.80;;;3.16;45.06;-19834.34;5093088;28;20219;-59
2022/03/14 04:25:55;;;;;;;8.73;6.33;;;2.30;93.90;;;3.12;45.31;-19833.00;5092794;28;20230;-59
2022/03/14 04:28:24;;;;;;;9.27;7.07;;;2.30;94.00;;;3.05;45.15;-19830.59;5092863;28;20228;-58
2022/03/14 04:30:52;;;;;;;10.17;6.67;;;2.30;93.80;;;3.06;45.99;-19831.09;5092980;28;20235;-58
2022/03/14 04:33:20;;;;;;;9.57;6.90;;;2.30;94.10;;;3.17;45.64;-19834.69;5093312;28;20677;-59
2022/03/14 04:35:48;;;;;;;8.47;6.77;;;2.30;94.20;;;3.10;45.34;-19832.47;5092502;28;20232;-56
2022/03/14 04:38:18;;;;;;;9.27;6.63;;;2.30;94.10;;;2.90;46.26;-19825.63;5092919;28;20345;-58
2022/03/14 04:40:47;;;;;;;9.13;7.20;;;2.30;94.20;;;3.03;45.43;-19830.09;5092396;28;20227;-56
2022/03/14 04:43:15;;;;;;;11.03;6.70;;;2.30;94.00;;;2.98;45.87;-19828.19;5092435;28;20249;-58
2022/03/14 04:45:43;;;;;;;8.33;7.10;;;2.30;94.30;;;2.93;45.77;-19826.66;5092651;28;20208;-58
2022/03/14 04:48:12;;;;;;;9.53;7.00;;;2.20;94.10;;;2.84;46.46;-19823.41;5093066;28;20203;-57
2022/03/14 04:50:41;;;;;;;9.50;6.63;;;2.20;94.40;;;2.87;46.57;-19824.44;5092204;28;20225;-59
2022/03/14 04:53:10;;;;;;;9.40;6.70;;;2.10;94.50;;;2.84;47.00;-19823.59;5092295;28;20312;-55
2022/03/14 04:55:38;;;;;;;8.90;7.17;;;2.10;94.70;;;2.85;46.57;-19823.94;5091808;28;20707;-57
2022/03/14 04:58:12;;;;;;;10.00;7.17;;;2.10;94.60;;;2.85;47.01;-19823.75;5091921;28;20802;-58
2022/03/14 05:00:42;;;;;;;9.23;7.13;;;2.10;94.80;;;2.90;46.45;-19825.47;5092400;28;20272;-59
2022/03/14 05:03:11;;;;;;;9.43;7.27;;;2.10;94.60;;;3.01;46.52;-19829.22;5092486;28;20234;-58
2022/03/14 05:05:40;;;;;;;10.03;6.60;;;2.10;94.80;;;2.94;47.14;-19827.00;5091951;28;20229;-57
2022/03/14 05:08:08;;;;;;;8.57;6.60;;;2.20;95.10;;;2.77;47.25;-19821.03;5091830;28;20251;-59
2022/03/14 05:10:36;;;;;;;9.60;7.13;;;2.10;95.00;;;2.73;48.06;-19819.81;5091465;28;20224;-60
2022/03/14 05:13:04;;;;;;;11.40;7.03;;;2.10;95.30;;;2.62;47.90;-19816.06;5091664;28;20302;-59
2022/03/14 05:15:34;;;;;;;9.67;6.87;;;2.00;95.20;;;2.72;47.77;-19819.50;5092093;28;20236;-57
2022/03/14 05:18:02;;;;;;;10.23;7.50;;;2.00;95.30;;;2.90;47.22;-19825.47;5091668;28;20232;-58
2022/03/14 05:20:30;;;;;;;8.70;6.80;;;2.00;95.30;;;3.10;47.54;-19832.47;5091731;28;20585;-59
2022/03/14 05:22:58;;;;;;;9.07;6.80;;;2.10;95.40;;;2.85;47.29;-19823.94;5091657;28;20223;-59
2022/03/14 05:25:27;;;;;;;9.83;6.63;;;2.10;95.20;;;2.81;48.12;-19822.56;5091506;28;20243;-57
2022/03/14 05:27:55;;;;;;;10.50;7.17;;;2.10;95.60;;;2.75;48.07;-19820.50;5091523;28;20200;-58
2022/03/14 05:30:24;;;;;;;9.80;7.00;;;2.00;95.50;;;2.73;47.83;-19819.66;5092092;28;20292;-59
2022/03/14 05:32:54;;;;;;;8.13;6.77;;;2.00;95.30;;;2.64;48.03;-19816.59;5091184;28;20226;-57
2022/03/14 05:35:22;;;;;;;10.30;7.10;;;2.00;95.60;;;2.74;48.76;-19820.00;5090991;28;20224;-56
2022/03/14 05:37:50;;;;;;;10.40;7.50;;;2.00;95.70;;;2.80;48.68;-19822.22;5091546;28;20231;-59
2022/03/14 05:40:20;;;;;;;9.00;7.30;;;2.00;96.00;;;2.79;48.00;-19821.88;5090791;28;20794;-58
2022/03/14 05:42:50;;;;;;;10.53;7.17;;;2.00;95.70;;;2.98;47.70;-19828.19;5091428;28;20191;-58
2022/03/14 05:45:21;;;;;;;9.83;7.30;;;2.10;95.60;;;3.11;46.68;-19832.66;5091080;28;20292;-56
2022/03/14 05:47:50;;;;;;;9.87;7.97;;;2.20;95.40;;;3.02;46.98;-19829.75;5091335;28;20224;-59
2022/03/14 05:50:20;;;;;;;10.77;7.50;;;2.20;95.30;;;3.06;47.30;-19831.09;5091493;28;20243;-60
2022/03/14 05:52:48;;;;;;;10.23;7.70;;;2.30;95.30;;;3.25;47.66;-19837.44;5091054;28;20227;-58
2022/03/14 05:55:16;;;;;;;9.83;7.30;;;2.30;95.50;;;3.42;47.16;-19843.41;5091103;28;20224;-58
2022/03/14 05:57:44;;;;;;;10.57;7.50;;;2.40;95.40;;;3.35;47.43;-19840.84;5090980;28;20212;-58
2022/03/14 06:00:22;;;;;;;10.30;6.90;;;2.50;95.50;;;3.47;47.15;-19844.97;5091657;28;20283;-59
2022/03/14 06:02:52;;;;;;;10.33;7.33;;;2.60;95.50;;;3.41;47.01;-19842.91;5091047;28;20639;-59
2022/03/14 06:05:23;;;;;;;11.83;6.80;;;2.60;95.40;;;3.32;47.19;-19839.81;5090511;28;20230;-59
2022/03/14 06:07:51;;;;;;;12.37;7.80;;;2.60;95.40;;;3.50;47.07;-19846.00;5090458;28;20233;-60
2022/03/14 06:10:19;;;;;;;9.63;7.73;;;2.70;95.30;;;3.50;47.08;-19846.16;5090963;28;20307;-60
2022/03/14 06:12:47;;;;;;;11.00;7.90;;;2.70;95.50;;;3.65;46.50;-19851.13;5090466;28;20309;-59
2022/03/14 06:15:16;;;;;;;10.13;7.27;;;2.80;95.10;;;3.78;46.54;-19855.38;5091386;28;20243;-59
2022/03/14 06:17:45;;;;;;;10.20;7.73;;;2.90;95.20;;;3.91;45.89;-19859.84;5090862;28;20231;-58
2022/03/14 06:20:16;;;;;;;11.43;7.30;;;3.00;94.90;;;3.84;45.92;-19857.59;5091081;28;20305;-59
2022/03/14 06:22:47;;;;;;;9.87;7.50;;;3.10;94.90;;;3.84;46.39;-19857.59;5091586;28;20223;-58
2022/03/14 06:25:18;;;;;;;11.43;7.67;;;3.10;95.00;;;4.00;46.14;-19863.06;5091061;28;20225;-58
2022/03/14 06:27:47;;;;;;;11.43;8.13;;;3.20;95.00;;;4.16;45.43;-19868.53;5090966;28;20349;-59
2022/03/14 06:30:15;;;;;;;11.13;7.80;;;3.30;94.80;;;4.36;44.97;-19875.38;5090863;28;20206;-58
2022/03/14 06:32:46;;;;;;;9.50;7.37;;;3.40;94.70;;;4.36;44.84;-19875.22;5090527;28;20492;-58
2022/03/14 06:35:16;;;;;;;11.13;7.77;;;3.50;94.40;;;4.61;44.32;-19883.75;5090651;28;20248;-60
2022/03/14 06:37:46;;;;;;;11.20;8.10;;;3.60;94.30;;;4.71;44.02;-19887.19;5090810;28;20252;-60
2022/03/14 06:40:15;;;;;;;11.70;8.17;;;3.70;94.30;;;4.74;44.33;-19888.38;5090534;28;20225;-58
2022/03/14 06:42:48;;;;;;;11.53;8.47;;;3.80;94.10;;;4.90;43.46;-19893.84;5090383;28;20856;-56
2022/03/14 06:45:23;;;;;;;12.20;8.43;;;3.90;93.90;;;4.83;43.76;-19891.28;5091051;28;20236;-58
2022/03/14 06:47:53;;;;;;;10.57;8.13;;;4.00;93.80;;;4.91;44.10;-19894.19;5090448;28;20272;-59
2022/03/14 06:50:23;;;;;;;11.77;8.40;;;4.10;94.10;;;5.22;43.48;-19904.44;5090344;28;20308;-60
2022/03/14 06:52:54;;;;;;;10.43;7.90;;;4.20;93.90;;;5.33;42.96;-19908.38;5090108;28;20232;-59
2022/03/14 06:55:22;;;;;;;13.47;8.50;;;4.30;93.80;;;5.63;42.90;-19918.47;5090352;28;20305;-59
2022/03/14 06:57:50;;;;;;;10.73;8.27;;;4.50;93.70;;;5.92;42.02;-19928.38;5090264;28;20204;-60
2022/03/14 07:00:19;;;;;;;11.03;8.37;;;4.70;93.50;;;5.91;41.98;-19928.03;5090711;28;20204;-60
2022/03/14 07:02:47;;;;;;;13.90;8.73;;;4.70;93.30;;;5.88;42.33;-19927.19;5089829;28;20215;-60
2022/03/14 07:05:18;;;;;;;12.40;8.97;;;4.80;93.40;;;5.90;41.63;-19927.69;5090270;28;20235;-59
2022/03/14 07:07:46;;;;;;;12.87;8.83;;;4.80;93.10;;;5.84;41.85;-19925.81;5089926;28;20732;-59
2022/03/14 07:10:16;;;;;;;10.87;8.13;;;4.90;93.00;;;5.73;42.64;-19921.88;5090194;28;20306;-59
2022/03/14 07:12:46;;;;;;;11.70;8.47;;;4.90;93.30;;;5.70;41.90;-19920.84;5090169;28;20708;-58
2022/03/14 07:15:16;;;;;;;10.50;8.27;;;4.80;93.00;;;5.82;42.44;-19925.13;5090578;28;20228;-60
2022/03/14 07:17:45;;;;;;;13.27;8.80;;;4.90;93.40;;;5.93;42.12;-19928.88;5090980;28;20609;-59
2022/03/14 07:20:14;;;;;;;11.37;8.33;;;5.00;93.20;;;6.26;41.36;-19939.81;5093026;28;20227;-61
2022/03/14 07:22:54;;;;;;;11.53;8.80;;;5.10;93.10;;;6.12;41.75;-19935.38;5092567;28;20517;-58
2022/03/14 07:25:27;;;;;;;12.57;8.20;;;5.10;93.20;;;6.09;41.36;-19934.19;5093863;28;20333;-58
2022/03/14 07:27:59;;;;;;;11.43;7.97;;;5.20;92.60;;;6.07;41.50;-19933.50;5093672;28;20279;-61
2022/03/14 07:30:27;;;;;;;12.50;8.80;;;5.20;92.80;;;6.01;41.49;-19931.63;5094276;28;20285;-60
2022/03/14 07:32:56;;;;;;;11.97;8.53;;;5.20;92.60;;;6.22;41.59;-19938.63;5093772;28;20666;-57
2022/03/14 07:35:26;;;;;;;10.67;8.87;;;5.30;93.00;;;6.33;41.17;-19942.38;5093501;28;20234;-59
2022/03/14 07:37:54;;;;;;;14.37;9.57;;;5.30;92.80;;;6.35;41.38;-19943.06;5093654;28;20302;-59
2022/03/14 07:40:24;;;;;;;12.70;8.90;;;5.40;92.80;;;6.69;41.47;-19954.69;5093610;28;20244;-57
2022/03/14 07:42:56;;;;;;;15.27;8.93;;;5.50;93.10;;;6.68;40.75;-19954.34;5093789;28;20192;-59
2022/03/14 07:45:25;;;;;;;10.83;8.23;;;5.60;92.70;;;6.97;40.62;-19964.25;5094097;28;20188;-57
2022/03/14 07:47:55;;;;;;;11.73;8.87;;;5.80;92.80;;;6.96;40.61;-19963.91;5093434;28;20284;-59
2022/03/14 07:50:25;;;;;;;11.13;8.60;;;5.90;92.60;;;7.14;40.25;-19970.06;5093664;28;20224;-60
2022/03/14 07:52:54;;;;;;;11.40;8.30;;;6.10;92.40;;;7.32;39.82;-19976.22;5093326;28;20227;-60
2022/03/14 07:55:25;;;;;;;10.33;8.37;;;6.30;92.30;;;7.66;39.55;-19987.66;5093370;28;20251;-60
2022/03/14 07:57:53;;;;;;;11.80;8.20;;;6.40;92.30;;;7.58;38.86;-19984.78;5091558;28;20289;-59
2022/03/14 08:00:21;;;;;;;15.37;8.87;;;6.50;91.60;;;7.52;39.24;-19982.72;5094263;28;20271;-59
2022/03/14 08:02:50;;;;;;;12.57;8.83;;;6.60;91.70;;;7.90;38.85;-19995.72;5093322;28;20304;-59
2022/03/14 08:05:24;;;;;;;12.17;8.63;;;6.70;91.80;;;8.15;38.19;-20004.25;5093131;28;20568;-57
2022/03/14 08:07:54;;;;;;;12.80;8.80;;;7.00;91.40;;;8.09;38.15;-20002.19;5093158;28;20256;-58
2022/03/14 08:10:24;;;;;;;12.40;9.37;;;7.10;91.30;;;8.41;37.30;-20013.13;5093236;28;20711;-58
2022/03/14 08:12:55;;;;;;;11.60;8.30;;;7.30;90.90;;;8.67;37.15;-20022.03;5092795;28;20260;-59
2022/03/14 08:15:25;;;;;;;10.60;8.40;;;7.40;90.90;;;9.25;36.02;-20041.84;5093631;28;20190;-59
2022/03/14 08:17:56;;;;;;;10.27;7.97;;;7.80;90.70;;;9.43;36.21;-20048.00;5092839;28;20244;-61
2022/03/14 08:20:26;;;;;;;10.73;8.20;;;8.00;90.50;;;9.37;35.86;-20045.94;5093141;28;20227;-59
2022/03/14 08:22:55;;;;;;;12.10;8.17;;;8.10;89.80;;;9.54;34.98;-20051.56;5092650;28;20595;-58
2022/03/14 08:25:25;;;;;;;11.23;8.30;;;8.30;88.90;;;9.68;33.89;-20056.53;5092781;28;20234;-58
2022/03/14 08:27:55;;;;;;;12.27;8.43;;;8.40;87.50;;;9.65;34.05;-20055.50;5092465;28;20292;-59
2022/03/14 08:30:25;;;;;;;18.13;8.90;;;8.40;87.30;;;9.64;33.40;-20055.16;5092844;28;20662;-58
2022/03/14 08:32:56;;;;;;;14.47;8.57;;;8.50;86.20;;;9.99;32.94;-20066.94;5092450;28;20227;-59
2022/03/14 08:35:26;;;;;;;12.07;8.17;;;8.60;86.00;;;10.33;33.02;-20078.56;5092768;28;20314;-59
2022/03/14 08:37:55;;;;;;;17.97;9.20;;;8.90;86.60;;;10.39;32.37;-20080.63;5092526;28;20219;-59
2022/03/14 08:40:28;;;;;;;11.63;8.50;;;9.00;86.10;;;10.56;32.60;-20086.44;5092479;28;20255;-58
2022/03/14 08:42:58;;;;;;;16.20;8.83;;;9.10;85.30;;;10.67;31.92;-20090.19;5092626;28;20230;-59
2022/03/14 08:45:27;;;;;;;13.50;9.20;;;9.20;84.30;;;10.88;31.96;-20097.19;5093128;28;20226;-60
2022/03/14 08:47:55;;;;;;;12.97;9.20;;;9.30;84.70;;;10.99;31.33;-20100.94;5092473;28;20302;-59
2022/03/14 08:50:24;;;;;;;10.57;8.90;;;9.40;83.80;;;10.97;31.63;-20100.44;5092503;28;20306;-59
2022/03/14 08:52:52;;;;;;;12.03;8.60;;;9.50;84.30;;;10.79;31.41;-20094.28;5091979;28;20224;-59
2022/03/14 08:55:21;;;;;;;12.70;9.67;;;9.50;83.30;;;10.73;31.88;-20092.06;5091615;28;20591;-59
2022/03/14 08:57:50;;;;;;;11.50;8.33;;;9.50;83.70;;;10.47;31.57;-20083.19;5092282;28;20298;-59
2022/03/14 09:00:24;;;;;;;9.87;8.57;;;9.30;83.50;;;10.55;32.25;-20086.09;5093070;28;20200;-61
2022/03/14 09:02:52;;;;;;;12.53;8.93;;;9.20;84.20;;;10.42;32.56;-20081.47;5092139;28;20577;-59
2022/03/14 09:05:20;;;;;;;14.63;9.20;;;9.20;84.70;;;10.69;32.41;-20090.69;5092221;28;20778;-59
2022/03/14 09:07:49;;;;;;;12.40;9.03;;;9.20;85.30;;;10.97;31.80;-20100.44;5091815;28;20273;-60
2022/03/14 09:10:17;;;;;;;12.10;8.77;;;9.40;84.60;;;11.17;31.43;-20107.09;5092311;28;20661;-59
2022/03/14 09:12:50;;;;;;;14.47;9.43;;;9.50;84.40;;;10.89;31.97;-20097.53;5091950;28;20662;-58
2022/03/14 09:15:20;;;;;;;15.47;8.97;;;9.50;84.40;;;11.32;31.74;-20112.03;5092700;28;20242;-60
2022/03/14 09:17:56;;;;;;;11.70;9.23;;;9.60;84.40;;;11.52;31.59;-20118.88;5091795;28;20223;-58
2022/03/14 09:20:25;;;;;;;11.93;8.90;;;9.80;85.30;;;11.60;31.50;-20121.78;5092045;28;20300;-60
2022/03/14 09:22:54;;;;;;;13.63;9.13;;;9.90;84.30;;;11.54;31.41;-20119.56;5091707;28;20326;-60
2022/03/14 09:25:25;;;;;;;12.30;9.50;;;10.00;84.00;;;11.54;32.32;-20119.56;5091805;28;20247;-61
2022/03/14 09:27:55;;;;;;;9.37;8.47;;;10.00;85.50;;;11.73;31.86;-20126.22;5091342;28;20185;-59
2022/03/14 09:30:24;;;;;;;14.63;9.10;;;10.10;85.50;;;11.85;31.63;-20130.16;5091823;28;20286;-60
2022/03/14 09:32:53;;;;;;;13.13;8.77;;;10.30;84.70;;;11.76;31.69;-20127.25;5091130;28;20319;-59
2022/03/14 09:35:25;;;;;;;15.83;9.00;;;10.30;84.10;;;11.77;32.25;-20127.41;5091368;28;20318;-59
2022/03/14 09:37:54;;;;;;;14.20;9.70;;;10.30;85.10;;;12.01;31.58;-20135.59;5091078;28;20306;-59
2022/03/14 09:40:24;;;;;;;14.83;10.00;;;10.40;84.70;;;11.95;32.25;-20133.75;5091238;28;20223;-58
2022/03/14 09:42:59;;;;;;;11.13;9.33;;;10.30;85.50;;;11.79;31.85;-20128.28;5090602;28;20231;-59
2022/03/14 09:45:28;;;;;;;11.73;9.47;;;10.30;84.70;;;11.96;31.73;-20133.91;5091915;28;20194;-61
2022/03/14 09:48:00;;;;;;;10.80;9.10;;;10.40;84.70;;;12.18;31.45;-20141.59;5090846;28;20642;-59
2022/03/14 09:50:37;;;;;;;17.60;9.80;;;10.50;84.60;;;12.07;31.47;-20137.84;5090967;28;20226;-58
2022/03/14 09:53:06;;;;;;;14.17;9.27;;;10.60;84.30;;;12.07;32.10;-20137.66;5090976;28;20310;-61
2022/03/14 09:55:40;;;;;;;14.43;10.23;;;10.60;84.70;;;12.04;32.22;-20136.81;5090774;28;20310;-60
2022/03/14 09:58:11;;;;;;;15.20;10.00;;;10.50;85.50;;;11.99;32.46;-20134.94;5090967;28;20639;-59
2022/03/14 10:00:40;;;;;;;11.83;9.63;;;10.50;85.90;;;11.97;32.69;-20134.25;5091545;28;20238;-59
2022/03/14 10:03:13;;;;;;;16.00;9.90;;;10.50;86.00;;;11.70;32.79;-20125.19;5091180;28;20227;-59
2022/03/14 10:05:43;;;;;;;13.97;9.80;;;10.40;86.10;;;12.00;32.94;-20135.28;5090844;28;20224;-59
2022/03/14 10:08:12;;;;;;;12.00;9.83;;;10.40;87.20;;;12.29;32.58;-20145.34;5090796;28;20236;-59
2022/03/14 10:10:42;;;;;;;12.73;9.77;;;10.50;86.80;;;12.09;33.23;-20138.34;5090750;28;20338;-60
2022/03/14 10:13:33;;;;;;;15.60;9.60;;;10.50;87.60;;;12.59;32.48;-20155.41;5090504;28;20591;-60
2022/03/14 10:16:01;;;;;;;13.00;9.67;;;10.70;87.00;;;12.12;32.46;-20139.53;5090998;28;20231;-59
2022/03/14 10:18:36;;;;;;;13.63;9.87;;;10.80;85.50;;;11.99;32.83;-20135.09;5091229;28;20288;-59
2022/03/14 10:21:06;;;;;;;12.27;9.57;;;10.70;86.00;;;12.49;32.23;-20151.84;5090725;28;20246;-59
2022/03/14 10:23:41;;;;;;;11.20;10.00;;;10.80;85.80;;;12.65;31.79;-20157.47;5090556;28;20232;-58
2022/03/14 10:26:13;;;;;;;15.67;10.33;;;11.00;85.60;;;12.65;31.77;-20157.47;5090740;28;20310;-60
2022/03/14 10:28:44;;;;;;;14.87;10.63;;;11.10;85.80;;;12.91;31.96;-20166.16;5090332;28;20223;-59